Terminal Aerodrome Forecast
Issued by NWS Sioux Falls, SD

Home | Current Version | Previous Version | Graphics & Text | Print | Product List | Glossary On
Versions: 1 2 3 4 5 6 7 8 9 10 11 12 13 14 15 16 17 18 19 20 21 22
139
FTUS43 KFSD 240520
TAFHON
TAF
KHON 240520Z 2406/2506 36011KT P6SM OVC006
     FM240900 36013G22KT P6SM VCSH OVC008
     FM241300 01015G24KT P6SM OVC015
     FM242000 01016G25KT P6SM SCT150=

USA.gov is the U.S. government's official web portal to all federal, state and local government web resources and services.